EGMC

Details ICAO EGMC (SEN)
Name Southend
Region United Kingdom
Timezone Europe/London (UTC+0.0)
Plans Departing 198
Arriving 144
Stats Elevation 49 ft / 15 m (AMSL)
Location 51.571443° 0.695583°
Runways 1
Magnetic Variation 0.169° W
Sunrise 2017-12-18 08:00:26 UTC / 2017-12-18 08:00:26 Local
Sunset 2017-12-18 15:49:55 UTC / 2017-12-18 15:49:55 Local
Advertisement - Login to hide

Runways

ID Width Length Bearing (true) Bearing (mag) Surface Threshold Offset Overrun Length
06 121 ft / 37 m 5,230 ft / 1,594 m 54.10° 54.27° Asphalt 558 ft / 170 m 0 ft / 0 m
24 121 ft / 37 m 5,230 ft / 1,594 m 234.11° 234.28° Asphalt 466 ft / 142 m 0 ft / 0 m

Approach Navaids

Runway Type Ident Frequency Range Bearing (true) Bearing (mag) Slope Elevation
24 Localiser IND 111.35 MHz 18 nm / 33 km 234.08° 234.25° - 49 ft / 15 m (AMSL)
24 Glidescope IND 111.35 MHz 10 nm / 19 km 234.10° 234.27° 3.50° 49 ft / 15 m (AMSL)
24 DME IND 111.35 MHz 18 nm / 33 km - - - 49 ft / 15 m (AMSL)

Map

Weather


0- 5 10 15 20 25 30 35+ Temperature / ° C

Clouds and Precipitation
Forecast for 2017-12-19 00:00 UTC. Updated an hour ago

Ground ~20,000 ft ~40,000 ft Winds

METAR

EGMC 182020Z 26003KT 9000 NSC 02/01 Q1032

TAF

Not found

Frequencies

Recorded 136.05 MHz Southend Information
Approach 130.77 MHz Southend Approach
Tower 127.72 MHz Southend Tower
Approach 128.95 MHz Southend Radar
Warning: Do not use this data for real-world aviation or navigation. No guarantee of current accuracy is given.